sensor_id;sensor_type;location;lat;lon;timestamp;P1;durP1;ratioP1;P2;durP2;ratioP2
64674;SDS011;51090;51.512;11.332;2022-12-07T00:03:41;14.52;;;5.80;;
64674;SDS011;51090;51.512;11.332;2022-12-07T00:06:09;13.45;;;5.80;;
64674;SDS011;51090;51.512;11.332;2022-12-07T00:08:38;13.45;;;5.28;;
64674;SDS011;51090;51.512;11.332;2022-12-07T00:11:15;13.02;;;6.07;;
64674;SDS011;51090;51.512;11.332;2022-12-07T00:13:47;13.63;;;6.03;;
64674;SDS011;51090;51.512;11.332;2022-12-07T00:16:24;12.25;;;5.65;;
64674;SDS011;51090;51.512;11.332;2022-12-07T00:18:53;11.77;;;5.40;;
64674;SDS011;51090;51.512;11.332;2022-12-07T00:21:24;12.48;;;5.75;;
64674;SDS011;51090;51.512;11.332;2022-12-07T00:23:53;12.40;;;6.05;;
64674;SDS011;51090;51.512;11.332;2022-12-07T00:26:21;12.95;;;5.53;;
64674;SDS011;51090;51.512;11.332;2022-12-07T00:28:57;12.75;;;5.63;;
64674;SDS011;51090;51.512;11.332;2022-12-07T00:31:29;12.25;;;5.32;;
64674;SDS011;51090;51.512;11.332;2022-12-07T00:33:59;14.68;;;5.90;;
64674;SDS011;51090;51.512;11.332;2022-12-07T00:36:25;16.48;;;6.97;;
64674;SDS011;51090;51.512;11.332;2022-12-07T00:38:51;13.68;;;6.53;;
64674;SDS011;51090;51.512;11.332;2022-12-07T00:41:18;15.93;;;7.40;;
64674;SDS011;51090;51.512;11.332;2022-12-07T00:43:49;20.58;;;8.48;;
64674;SDS011;51090;51.512;11.332;2022-12-07T00:46:16;22.95;;;8.18;;
64674;SDS011;51090;51.512;11.332;2022-12-07T00:48:44;16.15;;;7.35;;
64674;SDS011;51090;51.512;11.332;2022-12-07T00:51:14;27.30;;;11.07;;
64674;SDS011;51090;51.512;11.332;2022-12-07T00:53:41;19.92;;;9.57;;
64674;SDS011;51090;51.512;11.332;2022-12-07T00:56:14;21.75;;;8.82;;
64674;SDS011;51090;51.512;11.332;2022-12-07T00:58:49;18.55;;;7.93;;
64674;SDS011;51090;51.512;11.332;2022-12-07T01:01:18;16.42;;;7.43;;
64674;SDS011;51090;51.512;11.332;2022-12-07T01:03:44;19.02;;;8.65;;
64674;SDS011;51090;51.512;11.332;2022-12-07T01:06:13;40.83;;;12.68;;
64674;SDS011;51090;51.512;11.332;2022-12-07T01:08:41;23.52;;;10.45;;
64674;SDS011;51090;51.512;11.332;2022-12-07T01:11:07;20.15;;;9.15;;
64674;SDS011;51090;51.512;11.332;2022-12-07T01:13:37;16.50;;;7.95;;
64674;SDS011;51090;51.512;11.332;2022-12-07T01:16:04;34.55;;;10.73;;
64674;SDS011;51090;51.512;11.332;2022-12-07T01:18:31;29.88;;;11.75;;
64674;SDS011;51090;51.512;11.332;2022-12-07T01:23:37;18.80;;;8.15;;
64674;SDS011;51090;51.512;11.332;2022-12-07T01:26:04;22.95;;;9.32;;
64674;SDS011;51090;51.512;11.332;2022-12-07T01:28:34;19.33;;;7.57;;
64674;SDS011;51090;51.512;11.332;2022-12-07T01:31:01;17.17;;;7.85;;
64674;SDS011;51090;51.512;11.332;2022-12-07T01:33:35;16.00;;;7.50;;
64674;SDS011;51090;51.512;11.332;2022-12-07T01:36:03;19.58;;;8.15;;
64674;SDS011;51090;51.512;11.332;2022-12-07T01:38:31;21.65;;;9.10;;
64674;SDS011;51090;51.512;11.332;2022-12-07T01:40:58;35.88;;;12.00;;
64674;SDS011;51090;51.512;11.332;2022-12-07T01:43:26;23.92;;;10.73;;
64674;SDS011;51090;51.512;11.332;2022-12-07T01:45:54;20.05;;;9.20;;
64674;SDS011;51090;51.512;11.332;2022-12-07T01:48:41;21.63;;;8.98;;
64674;SDS011;51090;51.512;11.332;2022-12-07T01:51:11;22.15;;;10.10;;
64674;SDS011;51090;51.512;11.332;2022-12-07T01:53:40;25.95;;;11.15;;
64674;SDS011;51090;51.512;11.332;2022-12-07T01:56:11;23.45;;;9.82;;
64674;SDS011;51090;51.512;11.332;2022-12-07T01:58:44;24.60;;;9.82;;
64674;SDS011;51090;51.512;11.332;2022-12-07T02:01:10;25.02;;;9.90;;
64674;SDS011;51090;51.512;11.332;2022-12-07T02:03:40;24.10;;;10.23;;
64674;SDS011;51090;51.512;11.332;2022-12-07T02:06:08;20.30;;;9.15;;
64674;SDS011;51090;51.512;11.332;2022-12-07T02:08:38;22.08;;;9.15;;
64674;SDS011;51090;51.512;11.332;2022-12-07T02:11:04;18.83;;;8.80;;
64674;SDS011;51090;51.512;11.332;2022-12-07T02:13:33;20.67;;;8.02;;
64674;SDS011;51090;51.512;11.332;2022-12-07T02:21:52;20.63;;;8.75;;
64674;SDS011;51090;51.512;11.332;2022-12-07T02:24:54;19.23;;;8.05;;
64674;SDS011;51090;51.512;11.332;2022-12-07T02:28:17;21.13;;;8.77;;
64674;SDS011;51090;51.512;11.332;2022-12-07T02:30:44;18.58;;;8.68;;
64674;SDS011;51090;51.512;11.332;2022-12-07T02:33:18;22.15;;;8.85;;
64674;SDS011;51090;51.512;11.332;2022-12-07T02:36:04;21.52;;;9.48;;
64674;SDS011;51090;51.512;11.332;2022-12-07T02:38:47;22.20;;;8.93;;
64674;SDS011;51090;51.512;11.332;2022-12-07T02:41:46;18.83;;;8.75;;
64674;SDS011;51090;51.512;11.332;2022-12-07T02:44:18;18.73;;;7.57;;
64674;SDS011;51090;51.512;11.332;2022-12-07T02:46:57;19.63;;;7.90;;
64674;SDS011;51090;51.512;11.332;2022-12-07T02:49:29;24.08;;;9.75;;
64674;SDS011;51090;51.512;11.332;2022-12-07T02:51:56;25.27;;;9.98;;
64674;SDS011;51090;51.512;11.332;2022-12-07T02:54:22;21.00;;;9.07;;
64674;SDS011;51090;51.512;11.332;2022-12-07T03:13:33;33.47;;;10.25;;
64674;SDS011;51090;51.512;11.332;2022-12-07T03:17:41;19.37;;;8.60;;
64674;SDS011;51090;51.512;11.332;2022-12-07T03:19:39;25.17;;;10.18;;
64674;SDS011;51090;51.512;11.332;2022-12-07T03:22:07;36.33;;;11.90;;
64674;SDS011;51090;51.512;11.332;2022-12-07T03:24:41;31.13;;;11.68;;
64674;SDS011;51090;51.512;11.332;2022-12-07T03:27:31;25.27;;;10.82;;
64674;SDS011;51090;51.512;11.332;2022-12-07T03:30:24;21.52;;;10.05;;
64674;SDS011;51090;51.512;11.332;2022-12-07T03:32:59;17.13;;;7.97;;
64674;SDS011;51090;51.512;11.332;2022-12-07T03:35:48;22.70;;;10.02;;
64674;SDS011;51090;51.512;11.332;2022-12-07T03:38:45;24.33;;;8.70;;
64674;SDS011;51090;51.512;11.332;2022-12-07T03:41:33;22.17;;;8.60;;
64674;SDS011;51090;51.512;11.332;2022-12-07T03:44:02;22.65;;;8.38;;
64674;SDS011;51090;51.512;11.332;2022-12-07T03:49:33;32.08;;;11.52;;
64674;SDS011;51090;51.512;11.332;2022-12-07T03:52:17;23.00;;;8.93;;
64674;SDS011;51090;51.512;11.332;2022-12-07T03:55:04;19.85;;;7.90;;
64674;SDS011;51090;51.512;11.332;2022-12-07T03:57:45;11.93;;;5.35;;
64674;SDS011;51090;51.512;11.332;2022-12-07T04:00:15;12.98;;;5.60;;
64674;SDS011;51090;51.512;11.332;2022-12-07T04:02:42;12.10;;;5.68;;
64674;SDS011;51090;51.512;11.332;2022-12-07T04:05:08;12.73;;;5.07;;
64674;SDS011;51090;51.512;11.332;2022-12-07T04:07:35;12.00;;;4.40;;
64674;SDS011;51090;51.512;11.332;2022-12-07T04:10:01;11.80;;;5.55;;
64674;SDS011;51090;51.512;11.332;2022-12-07T04:12:28;10.75;;;5.03;;
64674;SDS011;51090;51.512;11.332;2022-12-07T04:14:53;9.10;;;4.30;;
64674;SDS011;51090;51.512;11.332;2022-12-07T04:17:19;9.82;;;4.20;;
64674;SDS011;51090;51.512;11.332;2022-12-07T04:19:45;8.05;;;4.20;;
64674;SDS011;51090;51.512;11.332;2022-12-07T04:22:10;10.75;;;4.38;;
64674;SDS011;51090;51.512;11.332;2022-12-07T04:24:36;6.82;;;3.33;;
64674;SDS011;51090;51.512;11.332;2022-12-07T04:27:02;8.60;;;3.70;;
64674;SDS011;51090;51.512;11.332;2022-12-07T04:29:28;9.43;;;4.57;;
64674;SDS011;51090;51.512;11.332;2022-12-07T04:31:54;7.40;;;3.45;;
64674;SDS011;51090;51.512;11.332;2022-12-07T04:34:19;10.70;;;4.72;;
64674;SDS011;51090;51.512;11.332;2022-12-07T04:36:45;9.27;;;3.92;;
64674;SDS011;51090;51.512;11.332;2022-12-07T04:39:25;7.70;;;3.95;;
64674;SDS011;51090;51.512;11.332;2022-12-07T04:41:53;8.98;;;4.05;;
64674;SDS011;51090;51.512;11.332;2022-12-07T04:44:20;8.57;;;4.05;;
64674;SDS011;51090;51.512;11.332;2022-12-07T04:46:47;11.10;;;5.18;;
64674;SDS011;51090;51.512;11.332;2022-12-07T04:49:14;8.90;;;4.63;;
64674;SDS011;51090;51.512;11.332;2022-12-07T04:51:40;10.63;;;5.72;;
64674;SDS011;51090;51.512;11.332;2022-12-07T04:54:07;8.68;;;3.92;;
64674;SDS011;51090;51.512;11.332;2022-12-07T04:56:34;9.27;;;4.75;;
64674;SDS011;51090;51.512;11.332;2022-12-07T04:59:00;6.88;;;3.63;;
64674;SDS011;51090;51.512;11.332;2022-12-07T05:01:27;7.32;;;3.53;;
64674;SDS011;51090;51.512;11.332;2022-12-07T05:03:53;8.38;;;3.97;;
64674;SDS011;51090;51.512;11.332;2022-12-07T05:06:19;12.20;;;5.68;;
64674;SDS011;51090;51.512;11.332;2022-12-07T05:08:45;10.63;;;4.78;;
64674;SDS011;51090;51.512;11.332;2022-12-07T05:11:11;9.63;;;4.50;;
64674;SDS011;51090;51.512;11.332;2022-12-07T05:13:56;10.35;;;5.30;;
64674;SDS011;51090;51.512;11.332;2022-12-07T05:16:22;12.45;;;5.35;;
64674;SDS011;51090;51.512;11.332;2022-12-07T05:18:48;10.52;;;4.35;;
64674;SDS011;51090;51.512;11.332;2022-12-07T05:21:13;10.38;;;4.35;;
64674;SDS011;51090;51.512;11.332;2022-12-07T05:23:39;10.18;;;5.03;;
64674;SDS011;51090;51.512;11.332;2022-12-07T05:26:05;12.45;;;5.78;;
64674;SDS011;51090;51.512;11.332;2022-12-07T05:28:31;12.15;;;5.22;;
64674;SDS011;51090;51.512;11.332;2022-12-07T05:30:56;12.70;;;6.00;;
64674;SDS011;51090;51.512;11.332;2022-12-07T05:33:22;13.25;;;6.88;;
64674;SDS011;51090;51.512;11.332;2022-12-07T05:35:48;12.75;;;6.43;;
64674;SDS011;51090;51.512;11.332;2022-12-07T05:38:13;13.65;;;5.82;;
64674;SDS011;51090;51.512;11.332;2022-12-07T05:40:39;15.20;;;7.00;;
64674;SDS011;51090;51.512;11.332;2022-12-07T05:43:05;12.40;;;5.75;;
64674;SDS011;51090;51.512;11.332;2022-12-07T05:45:30;14.65;;;5.93;;
64674;SDS011;51090;51.512;11.332;2022-12-07T05:47:56;15.15;;;5.50;;
64674;SDS011;51090;51.512;11.332;2022-12-07T05:50:22;12.95;;;5.30;;
64674;SDS011;51090;51.512;11.332;2022-12-07T05:52:48;12.48;;;5.30;;
64674;SDS011;51090;51.512;11.332;2022-12-07T05:55:13;13.45;;;5.97;;
64674;SDS011;51090;51.512;11.332;2022-12-07T05:57:39;18.70;;;9.07;;
64674;SDS011;51090;51.512;11.332;2022-12-07T06:00:25;13.45;;;6.53;;
64674;SDS011;51090;51.512;11.332;2022-12-07T06:02:51;14.60;;;6.75;;
64674;SDS011;51090;51.512;11.332;2022-12-07T06:05:16;16.65;;;7.22;;
64674;SDS011;51090;51.512;11.332;2022-12-07T06:07:42;22.55;;;7.32;;
64674;SDS011;51090;51.512;11.332;2022-12-07T06:10:08;15.55;;;6.57;;
64674;SDS011;51090;51.512;11.332;2022-12-07T06:12:34;17.52;;;7.35;;
64674;SDS011;51090;51.512;11.332;2022-12-07T06:15:00;19.17;;;8.13;;
64674;SDS011;51090;51.512;11.332;2022-12-07T06:17:26;16.80;;;7.43;;
64674;SDS011;51090;51.512;11.332;2022-12-07T06:19:51;19.15;;;8.88;;
64674;SDS011;51090;51.512;11.332;2022-12-07T06:22:17;16.73;;;6.97;;
64674;SDS011;51090;51.512;11.332;2022-12-07T06:24:43;18.10;;;8.18;;
64674;SDS011;51090;51.512;11.332;2022-12-07T06:27:09;16.77;;;7.20;;
64674;SDS011;51090;51.512;11.332;2022-12-07T06:29:35;18.30;;;7.75;;
64674;SDS011;51090;51.512;11.332;2022-12-07T06:32:01;18.20;;;8.10;;
64674;SDS011;51090;51.512;11.332;2022-12-07T06:34:28;15.60;;;6.90;;
64674;SDS011;51090;51.512;11.332;2022-12-07T06:36:54;18.70;;;7.85;;
64674;SDS011;51090;51.512;11.332;2022-12-07T06:39:21;17.75;;;7.45;;
64674;SDS011;51090;51.512;11.332;2022-12-07T06:41:50;15.13;;;6.88;;
64674;SDS011;51090;51.512;11.332;2022-12-07T06:44:17;13.52;;;6.40;;
64674;SDS011;51090;51.512;11.332;2022-12-07T06:46:43;16.90;;;7.90;;
64674;SDS011;51090;51.512;11.332;2022-12-07T06:49:09;17.55;;;7.82;;
64674;SDS011;51090;51.512;11.332;2022-12-07T06:51:35;16.65;;;7.53;;
64674;SDS011;51090;51.512;11.332;2022-12-07T06:54:05;17.92;;;6.80;;
64674;SDS011;51090;51.512;11.332;2022-12-07T06:56:36;20.25;;;7.30;;
64674;SDS011;51090;51.512;11.332;2022-12-07T06:59:03;16.23;;;6.50;;
64674;SDS011;51090;51.512;11.332;2022-12-07T07:01:31;15.80;;;6.63;;
64674;SDS011;51090;51.512;11.332;2022-12-07T07:03:58;14.68;;;6.60;;
64674;SDS011;51090;51.512;11.332;2022-12-07T07:06:25;19.05;;;7.82;;
64674;SDS011;51090;51.512;11.332;2022-12-07T07:08:51;13.07;;;6.30;;
64674;SDS011;51090;51.512;11.332;2022-12-07T07:11:17;14.35;;;6.15;;
64674;SDS011;51090;51.512;11.332;2022-12-07T07:13:43;15.45;;;6.57;;
64674;SDS011;51090;51.512;11.332;2022-12-07T07:16:10;13.98;;;6.35;;
64674;SDS011;51090;51.512;11.332;2022-12-07T07:18:36;16.10;;;6.85;;
64674;SDS011;51090;51.512;11.332;2022-12-07T07:21:02;18.23;;;7.35;;
64674;SDS011;51090;51.512;11.332;2022-12-07T07:23:28;21.15;;;8.10;;
64674;SDS011;51090;51.512;11.332;2022-12-07T07:25:54;17.02;;;7.05;;
64674;SDS011;51090;51.512;11.332;2022-12-07T07:28:20;18.45;;;7.60;;
64674;SDS011;51090;51.512;11.332;2022-12-07T07:30:45;16.35;;;7.25;;
64674;SDS011;51090;51.512;11.332;2022-12-07T07:33:11;19.25;;;8.80;;
64674;SDS011;51090;51.512;11.332;2022-12-07T07:35:37;20.50;;;9.23;;
64674;SDS011;51090;51.512;11.332;2022-12-07T07:38:04;20.08;;;8.93;;
64674;SDS011;51090;51.512;11.332;2022-12-07T07:40:31;17.85;;;8.07;;
64674;SDS011;51090;51.512;11.332;2022-12-07T07:42:57;21.05;;;8.50;;
64674;SDS011;51090;51.512;11.332;2022-12-07T07:45:23;17.58;;;7.80;;
64674;SDS011;51090;51.512;11.332;2022-12-07T07:47:51;18.13;;;8.07;;
64674;SDS011;51090;51.512;11.332;2022-12-07T07:50:18;16.65;;;8.02;;
64674;SDS011;51090;51.512;11.332;2022-12-07T07:52:44;19.92;;;9.18;;
64674;SDS011;51090;51.512;11.332;2022-12-07T07:55:10;17.20;;;7.03;;
64674;SDS011;51090;51.512;11.332;2022-12-07T07:57:37;15.20;;;7.93;;
64674;SDS011;51090;51.512;11.332;2022-12-07T08:00:05;20.05;;;8.02;;
64674;SDS011;51090;51.512;11.332;2022-12-07T08:05:02;16.38;;;6.63;;
64674;SDS011;51090;51.512;11.332;2022-12-07T08:07:29;17.25;;;7.50;;
64674;SDS011;51090;51.512;11.332;2022-12-07T08:09:55;19.20;;;7.07;;
64674;SDS011;51090;51.512;11.332;2022-12-07T08:12:20;19.42;;;7.65;;
64674;SDS011;51090;51.512;11.332;2022-12-07T08:14:46;16.25;;;7.82;;
64674;SDS011;51090;51.512;11.332;2022-12-07T08:17:12;17.95;;;8.02;;
64674;SDS011;51090;51.512;11.332;2022-12-07T08:19:38;17.80;;;7.47;;
64674;SDS011;51090;51.512;11.332;2022-12-07T08:22:03;18.10;;;8.73;;
64674;SDS011;51090;51.512;11.332;2022-12-07T08:24:30;19.58;;;7.93;;
64674;SDS011;51090;51.512;11.332;2022-12-07T08:26:59;21.00;;;8.32;;
64674;SDS011;51090;51.512;11.332;2022-12-07T08:29:25;18.27;;;7.85;;
64674;SDS011;51090;51.512;11.332;2022-12-07T08:31:51;23.27;;;9.73;;
64674;SDS011;51090;51.512;11.332;2022-12-07T08:34:16;20.13;;;9.20;;
64674;SDS011;51090;51.512;11.332;2022-12-07T08:36:42;18.20;;;8.90;;
64674;SDS011;51090;51.512;11.332;2022-12-07T08:39:08;21.45;;;8.98;;
64674;SDS011;51090;51.512;11.332;2022-12-07T08:41:34;15.75;;;7.10;;
64674;SDS011;51090;51.512;11.332;2022-12-07T08:43:59;20.17;;;7.68;;
64674;SDS011;51090;51.512;11.332;2022-12-07T08:46:30;17.70;;;7.68;;
64674;SDS011;51090;51.512;11.332;2022-12-07T08:49:11;16.63;;;7.38;;
64674;SDS011;51090;51.512;11.332;2022-12-07T08:51:45;19.95;;;8.02;;
64674;SDS011;51090;51.512;11.332;2022-12-07T08:54:11;15.52;;;6.72;;
64674;SDS011;51090;51.512;11.332;2022-12-07T08:56:40;15.82;;;7.30;;
64674;SDS011;51090;51.512;11.332;2022-12-07T08:59:06;13.35;;;6.63;;
64674;SDS011;51090;51.512;11.332;2022-12-07T09:01:32;13.68;;;6.30;;
64674;SDS011;51090;51.512;11.332;2022-12-07T09:03:58;14.95;;;6.72;;
64674;SDS011;51090;51.512;11.332;2022-12-07T09:06:24;11.85;;;6.03;;
64674;SDS011;51090;51.512;11.332;2022-12-07T09:08:51;13.95;;;6.45;;
64674;SDS011;51090;51.512;11.332;2022-12-07T09:11:22;11.35;;;5.82;;
64674;SDS011;51090;51.512;11.332;2022-12-07T09:13:47;12.70;;;5.53;;
64674;SDS011;51090;51.512;11.332;2022-12-07T09:16:13;11.73;;;5.13;;
64674;SDS011;51090;51.512;11.332;2022-12-07T09:18:39;12.77;;;5.82;;
64674;SDS011;51090;51.512;11.332;2022-12-07T09:21:05;14.88;;;5.78;;
64674;SDS011;51090;51.512;11.332;2022-12-07T09:23:30;14.15;;;5.50;;
64674;SDS011;51090;51.512;11.332;2022-12-07T09:26:03;10.70;;;4.25;;
64674;SDS011;51090;51.512;11.332;2022-12-07T09:28:30;10.95;;;5.20;;
64674;SDS011;51090;51.512;11.332;2022-12-07T09:30:56;12.45;;;5.53;;
64674;SDS011;51090;51.512;11.332;2022-12-07T09:33:22;16.25;;;7.10;;
64674;SDS011;51090;51.512;11.332;2022-12-07T09:35:48;13.05;;;6.00;;
64674;SDS011;51090;51.512;11.332;2022-12-07T09:38:16;12.95;;;5.50;;
64674;SDS011;51090;51.512;11.332;2022-12-07T09:40:43;13.05;;;6.80;;
64674;SDS011;51090;51.512;11.332;2022-12-07T09:43:13;12.95;;;5.97;;
64674;SDS011;51090;51.512;11.332;2022-12-07T09:45:49;11.18;;;5.45;;
64674;SDS011;51090;51.512;11.332;2022-12-07T09:48:40;11.68;;;5.78;;
64674;SDS011;51090;51.512;11.332;2022-12-07T09:51:13;16.92;;;6.70;;
64674;SDS011;51090;51.512;11.332;2022-12-07T09:53:47;13.90;;;6.55;;
64674;SDS011;51090;51.512;11.332;2022-12-07T09:56:14;16.58;;;7.05;;
64674;SDS011;51090;51.512;11.332;2022-12-07T09:58:41;19.70;;;8.27;;
64674;SDS011;51090;51.512;11.332;2022-12-07T10:03:43;11.18;;;5.47;;
64674;SDS011;51090;51.512;11.332;2022-12-07T10:06:16;9.27;;;4.03;;
64674;SDS011;51090;51.512;11.332;2022-12-07T10:08:42;11.98;;;5.05;;
64674;SDS011;51090;51.512;11.332;2022-12-07T10:11:08;9.70;;;4.53;;
64674;SDS011;51090;51.512;11.332;2022-12-07T10:13:45;6.38;;;2.78;;
64674;SDS011;51090;51.512;11.332;2022-12-07T10:18:53;5.47;;;2.28;;
64674;SDS011;51090;51.512;11.332;2022-12-07T10:21:21;7.25;;;3.50;;
64674;SDS011;51090;51.512;11.332;2022-12-07T10:24:05;5.35;;;2.95;;
64674;SDS011;51090;51.512;11.332;2022-12-07T10:29:14;6.72;;;2.65;;
64674;SDS011;51090;51.512;11.332;2022-12-07T10:31:49;5.07;;;2.30;;
64674;SDS011;51090;51.512;11.332;2022-12-07T10:34:31;4.75;;;2.20;;
64674;SDS011;51090;51.512;11.332;2022-12-07T10:43:05;3.90;;;1.48;;
64674;SDS011;51090;51.512;11.332;2022-12-07T10:48:24;3.00;;;1.70;;
64674;SDS011;51090;51.512;11.332;2022-12-07T10:53:55;4.57;;;1.75;;
64674;SDS011;51090;51.512;11.332;2022-12-07T11:10:48;2.25;;;1.13;;
64674;SDS011;51090;51.512;11.332;2022-12-07T11:16:23;3.25;;;1.10;;
64674;SDS011;51090;51.512;11.332;2022-12-07T11:19:24;4.15;;;1.10;;
64674;SDS011;51090;51.512;11.332;2022-12-07T11:21:58;3.45;;;1.33;;
64674;SDS011;51090;51.512;11.332;2022-12-07T11:25:16;4.00;;;1.13;;
64674;SDS011;51090;51.512;11.332;2022-12-07T11:31:24;3.35;;;1.38;;
64674;SDS011;51090;51.512;11.332;2022-12-07T11:37:12;3.58;;;1.60;;
64674;SDS011;51090;51.512;11.332;2022-12-07T11:39:49;3.25;;;1.50;;
64674;SDS011;51090;51.512;11.332;2022-12-07T11:42:21;6.22;;;1.85;;
64674;SDS011;51090;51.512;11.332;2022-12-07T11:44:56;3.15;;;1.52;;
64674;SDS011;51090;51.512;11.332;2022-12-07T11:47:45;3.53;;;1.77;;
64674;SDS011;51090;51.512;11.332;2022-12-07T11:53:24;2.83;;;1.67;;
64674;SDS011;51090;51.512;11.332;2022-12-07T11:56:13;8.05;;;1.80;;
64674;SDS011;51090;51.512;11.332;2022-12-07T12:03:47;4.88;;;1.90;;
64674;SDS011;51090;51.512;11.332;2022-12-07T12:06:17;4.93;;;1.30;;
64674;SDS011;51090;51.512;11.332;2022-12-07T12:09:29;5.20;;;1.80;;
64674;SDS011;51090;51.512;11.332;2022-12-07T12:18:22;3.92;;;1.65;;
64674;SDS011;51090;51.512;11.332;2022-12-07T12:21:08;4.55;;;1.85;;
64674;SDS011;51090;51.512;11.332;2022-12-07T12:26:20;5.13;;;1.90;;
64674;SDS011;51090;51.512;11.332;2022-12-07T12:29:02;7.30;;;3.13;;
64674;SDS011;51090;51.512;11.332;2022-12-07T12:31:46;6.43;;;2.78;;
64674;SDS011;51090;51.512;11.332;2022-12-07T12:34:37;6.47;;;2.78;;
64674;SDS011;51090;51.512;11.332;2022-12-07T12:45:26;2.78;;;1.38;;
64674;SDS011;51090;51.512;11.332;2022-12-07T12:50:36;4.40;;;1.50;;
64674;SDS011;51090;51.512;11.332;2022-12-07T12:53:12;2.17;;;1.13;;
64674;SDS011;51090;51.512;11.332;2022-12-07T12:58:46;2.78;;;1.02;;
64674;SDS011;51090;51.512;11.332;2022-12-07T13:04:03;3.83;;;1.35;;
64674;SDS011;51090;51.512;11.332;2022-12-07T13:06:53;3.05;;;1.60;;
64674;SDS011;51090;51.512;11.332;2022-12-07T13:09:24;2.55;;;1.27;;
64674;SDS011;51090;51.512;11.332;2022-12-07T13:12:11;3.83;;;1.42;;
64674;SDS011;51090;51.512;11.332;2022-12-07T13:14:41;3.70;;;1.60;;
64674;SDS011;51090;51.512;11.332;2022-12-07T13:19:56;7.53;;;1.63;;
64674;SDS011;51090;51.512;11.332;2022-12-07T13:28:13;5.45;;;1.70;;
64674;SDS011;51090;51.512;11.332;2022-12-07T13:33:46;4.68;;;1.95;;
64674;SDS011;51090;51.512;11.332;2022-12-07T13:36:17;6.43;;;1.52;;
64674;SDS011;51090;51.512;11.332;2022-12-07T13:38:52;4.80;;;1.67;;
64674;SDS011;51090;51.512;11.332;2022-12-07T13:41:34;4.35;;;1.67;;
64674;SDS011;51090;51.512;11.332;2022-12-07T13:44:11;3.80;;;1.52;;
64674;SDS011;51090;51.512;11.332;2022-12-07T13:49:32;4.57;;;1.58;;
64674;SDS011;51090;51.512;11.332;2022-12-07T13:52:12;4.37;;;1.33;;
64674;SDS011;51090;51.512;11.332;2022-12-07T13:54:45;2.33;;;1.00;;
64674;SDS011;51090;51.512;11.332;2022-12-07T13:57:26;4.95;;;1.10;;
64674;SDS011;51090;51.512;11.332;2022-12-07T13:59:55;4.60;;;1.20;;
64674;SDS011;51090;51.512;11.332;2022-12-07T14:02:26;5.15;;;0.98;;
64674;SDS011;51090;51.512;11.332;2022-12-07T14:10:22;7.22;;;1.45;;
64674;SDS011;51090;51.512;11.332;2022-12-07T14:12:56;5.78;;;1.90;;
64674;SDS011;51090;51.512;11.332;2022-12-07T14:15:24;7.82;;;1.98;;
64674;SDS011;51090;51.512;11.332;2022-12-07T14:17:56;3.80;;;1.52;;
64674;SDS011;51090;51.512;11.332;2022-12-07T14:22:58;3.60;;;1.30;;
64674;SDS011;51090;51.512;11.332;2022-12-07T14:25:33;3.60;;;1.52;;
64674;SDS011;51090;51.512;11.332;2022-12-07T14:28:33;3.17;;;1.02;;
64674;SDS011;51090;51.512;11.332;2022-12-07T14:31:01;3.28;;;1.45;;
64674;SDS011;51090;51.512;11.332;2022-12-07T14:33:28;5.43;;;1.55;;
64674;SDS011;51090;51.512;11.332;2022-12-07T14:35:54;5.22;;;1.55;;
64674;SDS011;51090;51.512;11.332;2022-12-07T14:38:22;3.78;;;1.40;;
64674;SDS011;51090;51.512;11.332;2022-12-07T14:40:50;6.38;;;2.00;;
64674;SDS011;51090;51.512;11.332;2022-12-07T14:43:17;11.27;;;3.28;;
64674;SDS011;51090;51.512;11.332;2022-12-07T14:45:44;7.05;;;2.00;;
64674;SDS011;51090;51.512;11.332;2022-12-07T14:48:11;3.95;;;1.85;;
64674;SDS011;51090;51.512;11.332;2022-12-07T14:50:48;9.38;;;2.85;;
64674;SDS011;51090;51.512;11.332;2022-12-07T14:53:18;14.05;;;5.13;;
64674;SDS011;51090;51.512;11.332;2022-12-07T14:55:52;6.60;;;2.28;;
64674;SDS011;51090;51.512;11.332;2022-12-07T14:58:18;8.90;;;3.10;;
64674;SDS011;51090;51.512;11.332;2022-12-07T15:00:45;10.98;;;2.85;;
64674;SDS011;51090;51.512;11.332;2022-12-07T15:03:12;10.30;;;2.97;;
64674;SDS011;51090;51.512;11.332;2022-12-07T15:05:38;5.32;;;1.50;;
64674;SDS011;51090;51.512;11.332;2022-12-07T15:08:06;8.73;;;2.55;;
64674;SDS011;51090;51.512;11.332;2022-12-07T15:10:33;8.10;;;1.98;;
64674;SDS011;51090;51.512;11.332;2022-12-07T15:13:03;3.25;;;1.58;;
64674;SDS011;51090;51.512;11.332;2022-12-07T15:15:48;5.82;;;1.17;;
64674;SDS011;51090;51.512;11.332;2022-12-07T15:18:16;4.57;;;1.63;;
64674;SDS011;51090;51.512;11.332;2022-12-07T15:20:42;11.63;;;2.08;;
64674;SDS011;51090;51.512;11.332;2022-12-07T15:23:09;5.47;;;1.60;;
64674;SDS011;51090;51.512;11.332;2022-12-07T15:25:35;7.40;;;1.60;;
64674;SDS011;51090;51.512;11.332;2022-12-07T15:28:01;3.35;;;1.55;;
64674;SDS011;51090;51.512;11.332;2022-12-07T15:30:27;8.48;;;2.38;;
64674;SDS011;51090;51.512;11.332;2022-12-07T15:32:53;8.63;;;2.35;;
64674;SDS011;51090;51.512;11.332;2022-12-07T15:35:19;5.07;;;1.58;;
64674;SDS011;51090;51.512;11.332;2022-12-07T15:37:46;4.63;;;1.80;;
64674;SDS011;51090;51.512;11.332;2022-12-07T15:40:12;6.45;;;2.00;;
64674;SDS011;51090;51.512;11.332;2022-12-07T15:42:38;5.75;;;1.90;;
64674;SDS011;51090;51.512;11.332;2022-12-07T15:45:05;2.67;;;1.33;;
64674;SDS011;51090;51.512;11.332;2022-12-07T15:47:41;4.60;;;1.40;;
64674;SDS011;51090;51.512;11.332;2022-12-07T15:50:13;5.10;;;2.13;;
64674;SDS011;51090;51.512;11.332;2022-12-07T15:52:41;5.43;;;2.25;;
64674;SDS011;51090;51.512;11.332;2022-12-07T15:55:08;6.78;;;2.67;;
64674;SDS011;51090;51.512;11.332;2022-12-07T15:57:35;9.70;;;2.22;;
64674;SDS011;51090;51.512;11.332;2022-12-07T16:00:04;6.18;;;2.13;;
64674;SDS011;51090;51.512;11.332;2022-12-07T16:02:31;5.75;;;2.00;;
64674;SDS011;51090;51.512;11.332;2022-12-07T16:04:57;6.45;;;2.03;;
64674;SDS011;51090;51.512;11.332;2022-12-07T16:07:23;9.38;;;3.35;;
64674;SDS011;51090;51.512;11.332;2022-12-07T16:09:49;5.40;;;2.45;;
64674;SDS011;51090;51.512;11.332;2022-12-07T16:12:15;6.55;;;1.92;;
64674;SDS011;51090;51.512;11.332;2022-12-07T16:14:41;5.82;;;2.60;;
64674;SDS011;51090;51.512;11.332;2022-12-07T16:17:07;4.97;;;2.17;;
64674;SDS011;51090;51.512;11.332;2022-12-07T16:19:34;5.78;;;2.03;;
64674;SDS011;51090;51.512;11.332;2022-12-07T16:22:01;11.90;;;2.97;;
64674;SDS011;51090;51.512;11.332;2022-12-07T16:24:28;7.30;;;2.13;;
64674;SDS011;51090;51.512;11.332;2022-12-07T16:26:55;6.20;;;1.90;;
64674;SDS011;51090;51.512;11.332;2022-12-07T16:29:21;7.18;;;2.50;;
64674;SDS011;51090;51.512;11.332;2022-12-07T16:31:48;9.75;;;4.53;;
64674;SDS011;51090;51.512;11.332;2022-12-07T16:34:14;8.95;;;2.53;;
64674;SDS011;51090;51.512;11.332;2022-12-07T16:36:40;6.32;;;2.40;;
64674;SDS011;51090;51.512;11.332;2022-12-07T16:39:06;6.32;;;2.42;;
64674;SDS011;51090;51.512;11.332;2022-12-07T16:41:32;7.57;;;2.58;;
64674;SDS011;51090;51.512;11.332;2022-12-07T16:44:02;5.72;;;2.00;;
64674;SDS011;51090;51.512;11.332;2022-12-07T16:49:00;12.40;;;2.53;;
64674;SDS011;51090;51.512;11.332;2022-12-07T16:51:26;4.75;;;2.15;;
64674;SDS011;51090;51.512;11.332;2022-12-07T16:53:52;7.35;;;2.03;;
64674;SDS011;51090;51.512;11.332;2022-12-07T16:56:18;8.38;;;2.83;;
64674;SDS011;51090;51.512;11.332;2022-12-07T16:58:45;10.50;;;3.05;;
64674;SDS011;51090;51.512;11.332;2022-12-07T17:01:13;5.93;;;2.60;;